sensor_id;sensor_type;location;lat;lon;timestamp;temperature;humidity
76345;DHT22;65160;50.504;3.666;2022-12-07T00:02:11;3.14;99.99
76345;DHT22;65160;50.504;3.666;2022-12-07T00:04:36;3.17;99.99
76345;DHT22;65160;50.504;3.666;2022-12-07T00:07:02;3.13;99.99
76345;DHT22;65160;50.504;3.666;2022-12-07T00:09:27;3.15;99.99
76345;DHT22;65160;50.504;3.666;2022-12-07T00:11:53;3.21;99.99
76345;DHT22;65160;50.504;3.666;2022-12-07T00:14:19;3.23;99.99
76345;DHT22;65160;50.504;3.666;2022-12-07T00:16:45;3.25;99.99
76345;DHT22;65160;50.504;3.666;2022-12-07T00:19:12;3.32;99.99
76345;DHT22;65160;50.504;3.666;2022-12-07T00:21:38;3.39;99.99
76345;DHT22;65160;50.504;3.666;2022-12-07T00:24:04;3.38;99.99
76345;DHT22;65160;50.504;3.666;2022-12-07T00:26:32;3.45;99.99
76345;DHT22;65160;50.504;3.666;2022-12-07T00:29:01;3.41;99.99
76345;DHT22;65160;50.504;3.666;2022-12-07T00:31:29;3.36;99.99
76345;DHT22;65160;50.504;3.666;2022-12-07T00:33:55;3.39;99.99
76345;DHT22;65160;50.504;3.666;2022-12-07T00:36:22;3.43;99.99
76345;DHT22;65160;50.504;3.666;2022-12-07T00:38:47;3.42;99.83
76345;DHT22;65160;50.504;3.666;2022-12-07T00:41:21;3.36;99.87
76345;DHT22;65160;50.504;3.666;2022-12-07T00:43:48;3.32;99.99
76345;DHT22;65160;50.504;3.666;2022-12-07T00:46:15;3.32;99.99
76345;DHT22;65160;50.504;3.666;2022-12-07T00:48:41;3.31;99.99
76345;DHT22;65160;50.504;3.666;2022-12-07T00:51:07;3.31;99.99
76345;DHT22;65160;50.504;3.666;2022-12-07T00:53:36;3.27;99.99
76345;DHT22;65160;50.504;3.666;2022-12-07T00:56:12;3.34;99.99
76345;DHT22;65160;50.504;3.666;2022-12-07T00:58:38;3.34;99.99
76345;DHT22;65160;50.504;3.666;2022-12-07T01:01:05;3.46;99.99
76345;DHT22;65160;50.504;3.666;2022-12-07T01:03:31;3.46;99.99
76345;DHT22;65160;50.504;3.666;2022-12-07T01:05:58;3.48;99.99
76345;DHT22;65160;50.504;3.666;2022-12-07T01:08:24;3.52;99.99
76345;DHT22;65160;50.504;3.666;2022-12-07T01:10:58;3.46;99.99
76345;DHT22;65160;50.504;3.666;2022-12-07T01:13:23;3.48;99.99
76345;DHT22;65160;50.504;3.666;2022-12-07T01:15:49;3.49;99.99
76345;DHT22;65160;50.504;3.666;2022-12-07T01:18:14;3.48;99.99
76345;DHT22;65160;50.504;3.666;2022-12-07T01:20:40;3.55;99.99
76345;DHT22;65160;50.504;3.666;2022-12-07T01:23:05;3.56;99.99
76345;DHT22;65160;50.504;3.666;2022-12-07T01:25:31;3.51;99.99
76345;DHT22;65160;50.504;3.666;2022-12-07T01:27:56;3.54;99.99
76345;DHT22;65160;50.504;3.666;2022-12-07T01:30:22;3.49;99.99
76345;DHT22;65160;50.504;3.666;2022-12-07T01:32:47;3.54;99.99
76345;DHT22;65160;50.504;3.666;2022-12-07T01:35:13;3.51;99.99
76345;DHT22;65160;50.504;3.666;2022-12-07T01:37:38;3.46;99.99
76345;DHT22;65160;50.504;3.666;2022-12-07T01:40:06;3.43;99.99
76345;DHT22;65160;50.504;3.666;2022-12-07T01:42:32;3.41;99.99
76345;DHT22;65160;50.504;3.666;2022-12-07T01:48:00;3.27;99.99
76345;DHT22;65160;50.504;3.666;2022-12-07T01:50:27;3.28;99.99
76345;DHT22;65160;50.504;3.666;2022-12-07T01:52:58;3.31;99.99
76345;DHT22;65160;50.504;3.666;2022-12-07T01:55:26;3.23;99.99
76345;DHT22;65160;50.504;3.666;2022-12-07T01:57:53;3.25;99.99
76345;DHT22;65160;50.504;3.666;2022-12-07T02:00:19;3.25;99.99
76345;DHT22;65160;50.504;3.666;2022-12-07T02:03:20;3.24;99.99
76345;DHT22;65160;50.504;3.666;2022-12-07T02:05:38;3.35;99.99
76345;DHT22;65160;50.504;3.666;2022-12-07T02:08:05;3.30;99.99
76345;DHT22;65160;50.504;3.666;2022-12-07T02:10:32;3.24;99.99
76345;DHT22;65160;50.504;3.666;2022-12-07T02:13:04;3.28;99.99
76345;DHT22;65160;50.504;3.666;2022-12-07T02:15:59;3.38;99.99
76345;DHT22;65160;50.504;3.666;2022-12-07T02:29:25;3.32;99.99
76345;DHT22;65160;50.504;3.666;2022-12-07T02:32:04;3.36;99.99
76345;DHT22;65160;50.504;3.666;2022-12-07T02:37:17;3.38;99.99
76345;DHT22;65160;50.504;3.666;2022-12-07T02:39:50;3.39;99.99
76345;DHT22;65160;50.504;3.666;2022-12-07T02:42:25;3.32;99.99
76345;DHT22;65160;50.504;3.666;2022-12-07T02:44:53;3.30;99.99
76345;DHT22;65160;50.504;3.666;2022-12-07T02:47:20;3.30;99.99
76345;DHT22;65160;50.504;3.666;2022-12-07T02:49:46;3.23;99.99
76345;DHT22;65160;50.504;3.666;2022-12-07T02:52:12;3.23;99.99
76345;DHT22;65160;50.504;3.666;2022-12-07T02:54:38;3.18;99.99
76345;DHT22;65160;50.504;3.666;2022-12-07T03:08:02;3.25;99.99
76345;DHT22;65160;50.504;3.666;2022-12-07T03:10:44;3.24;99.99
76345;DHT22;65160;50.504;3.666;2022-12-07T03:13:19;3.25;99.99
76345;DHT22;65160;50.504;3.666;2022-12-07T03:18:28;3.39;99.99
76345;DHT22;65160;50.504;3.666;2022-12-07T03:20:57;3.42;99.99
76345;DHT22;65160;50.504;3.666;2022-12-07T03:23:25;3.34;99.99
76345;DHT22;65160;50.504;3.666;2022-12-07T03:25:56;3.28;99.99
76345;DHT22;65160;50.504;3.666;2022-12-07T03:28:24;3.23;99.99
76345;DHT22;65160;50.504;3.666;2022-12-07T03:30:56;3.23;99.99
76345;DHT22;65160;50.504;3.666;2022-12-07T03:33:35;3.15;99.99
76345;DHT22;65160;50.504;3.666;2022-12-07T03:36:15;3.13;99.99
76345;DHT22;65160;50.504;3.666;2022-12-07T03:38:49;3.07;99.99
76345;DHT22;65160;50.504;3.666;2022-12-07T03:41:27;3.03;99.99
76345;DHT22;65160;50.504;3.666;2022-12-07T03:43:55;3.05;99.99
76345;DHT22;65160;50.504;3.666;2022-12-07T03:49:26;3.07;99.99
76345;DHT22;65160;50.504;3.666;2022-12-07T03:52:28;3.00;99.99
76345;DHT22;65160;50.504;3.666;2022-12-07T03:57:26;3.05;99.99
76345;DHT22;65160;50.504;3.666;2022-12-07T03:59:54;3.01;99.99
76345;DHT22;65160;50.504;3.666;2022-12-07T04:02:21;3.00;99.99
76345;DHT22;65160;50.504;3.666;2022-12-07T04:04:47;2.96;99.99
76345;DHT22;65160;50.504;3.666;2022-12-07T04:07:12;2.94;99.99
76345;DHT22;65160;50.504;3.666;2022-12-07T04:09:38;2.93;99.99
76345;DHT22;65160;50.504;3.666;2022-12-07T04:12:04;2.89;99.99
76345;DHT22;65160;50.504;3.666;2022-12-07T04:14:29;2.90;99.99
76345;DHT22;65160;50.504;3.666;2022-12-07T04:16:57;2.86;99.99
76345;DHT22;65160;50.504;3.666;2022-12-07T04:19:28;2.83;99.99
76345;DHT22;65160;50.504;3.666;2022-12-07T04:21:54;2.86;99.99
76345;DHT22;65160;50.504;3.666;2022-12-07T04:24:20;2.80;99.99
76345;DHT22;65160;50.504;3.666;2022-12-07T04:26:46;2.90;99.99
76345;DHT22;65160;50.504;3.666;2022-12-07T04:29:12;2.93;99.99
76345;DHT22;65160;50.504;3.666;2022-12-07T04:31:38;2.92;99.99
76345;DHT22;65160;50.504;3.666;2022-12-07T04:34:04;2.96;99.99
76345;DHT22;65160;50.504;3.666;2022-12-07T04:36:31;2.97;99.99
76345;DHT22;65160;50.504;3.666;2022-12-07T04:38:56;2.94;99.99
76345;DHT22;65160;50.504;3.666;2022-12-07T04:41:23;2.93;99.99
76345;DHT22;65160;50.504;3.666;2022-12-07T04:43:54;2.97;99.99
76345;DHT22;65160;50.504;3.666;2022-12-07T04:46:20;2.99;99.99
76345;DHT22;65160;50.504;3.666;2022-12-07T04:48:45;2.97;99.99
76345;DHT22;65160;50.504;3.666;2022-12-07T04:51:11;3.01;99.99
76345;DHT22;65160;50.504;3.666;2022-12-07T04:53:36;3.05;99.99
76345;DHT22;65160;50.504;3.666;2022-12-07T04:56:02;3.03;99.99
76345;DHT22;65160;50.504;3.666;2022-12-07T04:58:27;2.93;99.99
76345;DHT22;65160;50.504;3.666;2022-12-07T05:00:56;2.85;99.99
76345;DHT22;65160;50.504;3.666;2022-12-07T05:03:21;2.80;99.99
76345;DHT22;65160;50.504;3.666;2022-12-07T05:05:47;2.73;99.99
76345;DHT22;65160;50.504;3.666;2022-12-07T05:08:12;2.66;99.99
76345;DHT22;65160;50.504;3.666;2022-12-07T05:10:38;2.72;99.99
76345;DHT22;65160;50.504;3.666;2022-12-07T05:13:03;2.79;99.99
76345;DHT22;65160;50.504;3.666;2022-12-07T05:15:28;2.83;99.99
76345;DHT22;65160;50.504;3.666;2022-12-07T05:17:54;2.86;99.99
76345;DHT22;65160;50.504;3.666;2022-12-07T05:20:19;2.85;99.99
76345;DHT22;65160;50.504;3.666;2022-12-07T05:22:45;2.87;99.99
76345;DHT22;65160;50.504;3.666;2022-12-07T05:25:10;2.90;99.99
76345;DHT22;65160;50.504;3.666;2022-12-07T05:27:36;2.97;99.99
76345;DHT22;65160;50.504;3.666;2022-12-07T05:30:01;2.99;99.99
76345;DHT22;65160;50.504;3.666;2022-12-07T05:32:27;2.99;99.99
76345;DHT22;65160;50.504;3.666;2022-12-07T05:34:52;3.04;99.99
76345;DHT22;65160;50.504;3.666;2022-12-07T05:37:20;3.07;99.99
76345;DHT22;65160;50.504;3.666;2022-12-07T05:39:45;3.11;99.99
76345;DHT22;65160;50.504;3.666;2022-12-07T05:42:10;3.08;99.99
76345;DHT22;65160;50.504;3.666;2022-12-07T05:44:40;3.10;99.99
76345;DHT22;65160;50.504;3.666;2022-12-07T05:47:06;3.10;99.99
76345;DHT22;65160;50.504;3.666;2022-12-07T05:49:32;3.03;99.99
76345;DHT22;65160;50.504;3.666;2022-12-07T05:51:57;2.93;99.99
76345;DHT22;65160;50.504;3.666;2022-12-07T05:54:23;2.87;99.99
76345;DHT22;65160;50.504;3.666;2022-12-07T05:56:49;2.80;99.99
76345;DHT22;65160;50.504;3.666;2022-12-07T05:59:14;2.71;99.99
76345;DHT22;65160;50.504;3.666;2022-12-07T06:01:53;2.66;99.99
76345;DHT22;65160;50.504;3.666;2022-12-07T06:04:21;2.62;99.99
76345;DHT22;65160;50.504;3.666;2022-12-07T06:06:46;2.59;99.99
76345;DHT22;65160;50.504;3.666;2022-12-07T06:09:12;2.58;99.99
76345;DHT22;65160;50.504;3.666;2022-12-07T06:11:38;2.56;99.99
76345;DHT22;65160;50.504;3.666;2022-12-07T06:14:22;2.55;99.99
76345;DHT22;65160;50.504;3.666;2022-12-07T06:16:48;2.53;99.99
76345;DHT22;65160;50.504;3.666;2022-12-07T06:19:13;2.52;99.99
76345;DHT22;65160;50.504;3.666;2022-12-07T06:21:39;2.58;99.99
76345;DHT22;65160;50.504;3.666;2022-12-07T06:24:05;2.65;99.99
76345;DHT22;65160;50.504;3.666;2022-12-07T06:26:30;2.69;99.99
76345;DHT22;65160;50.504;3.666;2022-12-07T06:28:56;2.73;99.99
76345;DHT22;65160;50.504;3.666;2022-12-07T06:31:21;2.72;99.99
76345;DHT22;65160;50.504;3.666;2022-12-07T06:33:47;2.76;99.99
76345;DHT22;65160;50.504;3.666;2022-12-07T06:36:12;2.73;99.99
76345;DHT22;65160;50.504;3.666;2022-12-07T06:38:38;2.76;99.99
76345;DHT22;65160;50.504;3.666;2022-12-07T06:41:04;2.79;99.99
76345;DHT22;65160;50.504;3.666;2022-12-07T06:43:29;2.87;99.99
76345;DHT22;65160;50.504;3.666;2022-12-07T06:45:55;2.92;99.99
76345;DHT22;65160;50.504;3.666;2022-12-07T06:48:20;2.96;99.99
76345;DHT22;65160;50.504;3.666;2022-12-07T06:50:46;2.96;99.99
76345;DHT22;65160;50.504;3.666;2022-12-07T06:53:13;2.96;99.99
76345;DHT22;65160;50.504;3.666;2022-12-07T06:55:38;2.92;99.99
76345;DHT22;65160;50.504;3.666;2022-12-07T06:58:04;2.92;99.99
76345;DHT22;65160;50.504;3.666;2022-12-07T07:00:29;2.89;99.99
76345;DHT22;65160;50.504;3.666;2022-12-07T07:02:55;2.92;99.99
76345;DHT22;65160;50.504;3.666;2022-12-07T07:05:21;2.93;99.99
76345;DHT22;65160;50.504;3.666;2022-12-07T07:07:50;2.89;99.99
76345;DHT22;65160;50.504;3.666;2022-12-07T07:10:15;2.86;99.99
76345;DHT22;65160;50.504;3.666;2022-12-07T07:12:41;2.86;99.99
76345;DHT22;65160;50.504;3.666;2022-12-07T07:15:07;2.89;99.99
76345;DHT22;65160;50.504;3.666;2022-12-07T07:17:32;2.89;99.99
76345;DHT22;65160;50.504;3.666;2022-12-07T07:19:58;2.89;99.99
76345;DHT22;65160;50.504;3.666;2022-12-07T07:22:23;2.82;99.99
76345;DHT22;65160;50.504;3.666;2022-12-07T07:24:49;2.82;99.99
76345;DHT22;65160;50.504;3.666;2022-12-07T07:27:14;2.76;99.99
76345;DHT22;65160;50.504;3.666;2022-12-07T07:29:40;2.75;99.99
76345;DHT22;65160;50.504;3.666;2022-12-07T07:32:05;2.73;99.99
76345;DHT22;65160;50.504;3.666;2022-12-07T07:34:30;2.79;99.99
76345;DHT22;65160;50.504;3.666;2022-12-07T07:36:56;2.94;99.99
76345;DHT22;65160;50.504;3.666;2022-12-07T07:39:21;2.90;99.99
76345;DHT22;65160;50.504;3.666;2022-12-07T07:41:47;2.92;99.99
76345;DHT22;65160;50.504;3.666;2022-12-07T07:44:12;2.97;99.99
76345;DHT22;65160;50.504;3.666;2022-12-07T07:46:38;3.00;99.99
76345;DHT22;65160;50.504;3.666;2022-12-07T07:49:03;3.07;99.99
76345;DHT22;65160;50.504;3.666;2022-12-07T07:51:29;3.10;99.99
76345;DHT22;65160;50.504;3.666;2022-12-07T07:53:54;3.24;99.99
76345;DHT22;65160;50.504;3.666;2022-12-07T07:56:19;3.27;99.99
76345;DHT22;65160;50.504;3.666;2022-12-07T07:58:45;3.28;99.99
76345;DHT22;65160;50.504;3.666;2022-12-07T08:01:10;3.35;99.99
76345;DHT22;65160;50.504;3.666;2022-12-07T08:03:36;3.39;99.99
76345;DHT22;65160;50.504;3.666;2022-12-07T08:06:03;3.43;99.99
76345;DHT22;65160;50.504;3.666;2022-12-07T08:08:28;3.46;99.99
76345;DHT22;65160;50.504;3.666;2022-12-07T08:10:53;3.45;99.99
76345;DHT22;65160;50.504;3.666;2022-12-07T08:13:19;3.43;99.99
76345;DHT22;65160;50.504;3.666;2022-12-07T08:15:46;3.43;99.99
76345;DHT22;65160;50.504;3.666;2022-12-07T08:18:13;3.43;99.99
76345;DHT22;65160;50.504;3.666;2022-12-07T08:20:39;3.45;99.99
76345;DHT22;65160;50.504;3.666;2022-12-07T08:23:06;3.48;99.99
76345;DHT22;65160;50.504;3.666;2022-12-07T08:25:32;3.52;99.99
76345;DHT22;65160;50.504;3.666;2022-12-07T08:27:58;3.55;99.99
76345;DHT22;65160;50.504;3.666;2022-12-07T08:30:24;3.62;99.99
76345;DHT22;65160;50.504;3.666;2022-12-07T08:32:49;3.65;99.99
76345;DHT22;65160;50.504;3.666;2022-12-07T08:35:15;3.72;99.99
76345;DHT22;65160;50.504;3.666;2022-12-07T08:37:41;3.75;99.99
76345;DHT22;65160;50.504;3.666;2022-12-07T08:40:08;3.72;99.99
76345;DHT22;65160;50.504;3.666;2022-12-07T08:42:34;3.63;99.99
76345;DHT22;65160;50.504;3.666;2022-12-07T08:45:07;3.54;99.99
76345;DHT22;65160;50.504;3.666;2022-12-07T08:47:36;3.46;99.99
76345;DHT22;65160;50.504;3.666;2022-12-07T08:50:03;3.51;99.99
76345;DHT22;65160;50.504;3.666;2022-12-07T08:52:30;3.68;99.99
76345;DHT22;65160;50.504;3.666;2022-12-07T08:54:57;3.82;99.99
76345;DHT22;65160;50.504;3.666;2022-12-07T08:57:23;3.93;99.99
76345;DHT22;65160;50.504;3.666;2022-12-07T08:59:49;4.00;99.99
76345;DHT22;65160;50.504;3.666;2022-12-07T09:02:14;4.11;99.99
76345;DHT22;65160;50.504;3.666;2022-12-07T09:04:39;4.18;99.99
76345;DHT22;65160;50.504;3.666;2022-12-07T09:07:05;4.22;99.99
76345;DHT22;65160;50.504;3.666;2022-12-07T09:09:31;4.28;99.99
76345;DHT22;65160;50.504;3.666;2022-12-07T09:11:57;4.34;99.99
76345;DHT22;65160;50.504;3.666;2022-12-07T09:14:22;4.44;99.99
76345;DHT22;65160;50.504;3.666;2022-12-07T09:16:48;4.52;99.99
76345;DHT22;65160;50.504;3.666;2022-12-07T09:19:13;4.68;99.99
76345;DHT22;65160;50.504;3.666;2022-12-07T09:21:39;5.03;99.99
76345;DHT22;65160;50.504;3.666;2022-12-07T09:24:05;5.10;99.99
76345;DHT22;65160;50.504;3.666;2022-12-07T09:26:30;5.11;99.99
76345;DHT22;65160;50.504;3.666;2022-12-07T09:28:56;5.07;99.99
76345;DHT22;65160;50.504;3.666;2022-12-07T09:31:21;5.04;99.99
76345;DHT22;65160;50.504;3.666;2022-12-07T09:33:46;5.04;99.99
76345;DHT22;65160;50.504;3.666;2022-12-07T09:36:12;4.99;99.76
76345;DHT22;65160;50.504;3.666;2022-12-07T09:38:38;5.00;99.99
76345;DHT22;65160;50.504;3.666;2022-12-07T09:41:05;5.03;99.65
76345;DHT22;65160;50.504;3.666;2022-12-07T09:43:35;4.96;99.75
76345;DHT22;65160;50.504;3.666;2022-12-07T09:46:01;4.96;99.87
76345;DHT22;65160;50.504;3.666;2022-12-07T09:48:32;5.04;99.82
76345;DHT22;65160;50.504;3.666;2022-12-07T09:51:00;5.06;99.59
76345;DHT22;65160;50.504;3.666;2022-12-07T09:53:34;5.04;99.43
76345;DHT22;65160;50.504;3.666;2022-12-07T09:56:01;5.26;99.52
76345;DHT22;65160;50.504;3.666;2022-12-07T09:58:28;5.28;99.20
76345;DHT22;65160;50.504;3.666;2022-12-07T10:03:36;5.31;98.95
76345;DHT22;65160;50.504;3.666;2022-12-07T10:06:04;5.38;98.81
76345;DHT22;65160;50.504;3.666;2022-12-07T10:08:31;5.45;98.75
76345;DHT22;65160;50.504;3.666;2022-12-07T10:10:57;5.44;98.38
76345;DHT22;65160;50.504;3.666;2022-12-07T10:13:39;5.47;98.48
76345;DHT22;65160;50.504;3.666;2022-12-07T10:16:05;5.52;98.24
76345;DHT22;65160;50.504;3.666;2022-12-07T10:18:41;5.52;98.46
76345;DHT22;65160;50.504;3.666;2022-12-07T10:23:37;5.55;98.24
76345;DHT22;65160;50.504;3.666;2022-12-07T10:26:34;5.52;98.36
76345;DHT22;65160;50.504;3.666;2022-12-07T10:31:40;5.56;98.14
76345;DHT22;65160;50.504;3.666;2022-12-07T10:34:20;5.59;98.21
76345;DHT22;65160;50.504;3.666;2022-12-07T10:36:47;5.69;98.12
76345;DHT22;65160;50.504;3.666;2022-12-07T10:39:14;5.75;98.43
76345;DHT22;65160;50.504;3.666;2022-12-07T10:41:56;5.75;98.62
76345;DHT22;65160;50.504;3.666;2022-12-07T10:44:30;5.72;98.44
76345;DHT22;65160;50.504;3.666;2022-12-07T10:47:29;5.76;98.55
76345;DHT22;65160;50.504;3.666;2022-12-07T10:50:26;5.75;98.61
76345;DHT22;65160;50.504;3.666;2022-12-07T10:53:09;5.80;98.74
76345;DHT22;65160;50.504;3.666;2022-12-07T10:58:37;5.96;98.01
76345;DHT22;65160;50.504;3.666;2022-12-07T11:01:25;5.93;98.11
76345;DHT22;65160;50.504;3.666;2022-12-07T11:06:40;6.03;98.34
76345;DHT22;65160;50.504;3.666;2022-12-07T11:31:50;6.31;97.53
76345;DHT22;65160;50.504;3.666;2022-12-07T11:36:54;6.37;97.08
76345;DHT22;65160;50.504;3.666;2022-12-07T11:39:35;6.44;96.71
76345;DHT22;65160;50.504;3.666;2022-12-07T11:45:14;6.51;95.19
76345;DHT22;65160;50.504;3.666;2022-12-07T11:48:01;6.55;95.13
76345;DHT22;65160;50.504;3.666;2022-12-07T11:50:37;6.51;96.36
76345;DHT22;65160;50.504;3.666;2022-12-07T12:03:52;6.37;96.52
76345;DHT22;65160;50.504;3.666;2022-12-07T12:06:19;6.27;96.86
76345;DHT22;65160;50.504;3.666;2022-12-07T12:08:46;6.32;96.59
76345;DHT22;65160;50.504;3.666;2022-12-07T12:11:35;6.31;96.34
76345;DHT22;65160;50.504;3.666;2022-12-07T12:14:34;6.27;95.48
76345;DHT22;65160;50.504;3.666;2022-12-07T12:19:58;6.14;95.98
76345;DHT22;65160;50.504;3.666;2022-12-07T12:22:38;6.17;96.30
76345;DHT22;65160;50.504;3.666;2022-12-07T12:25:06;6.28;96.45
76345;DHT22;65160;50.504;3.666;2022-12-07T12:27:37;6.42;96.25
76345;DHT22;65160;50.504;3.666;2022-12-07T12:30:07;6.53;95.95
76345;DHT22;65160;50.504;3.666;2022-12-07T12:32:42;6.56;94.86
76345;DHT22;65160;50.504;3.666;2022-12-07T12:35:35;6.61;95.32
76345;DHT22;65160;50.504;3.666;2022-12-07T12:40:48;6.80;95.30
76345;DHT22;65160;50.504;3.666;2022-12-07T12:43:49;6.89;94.54
76345;DHT22;65160;50.504;3.666;2022-12-07T12:54:39;7.11;92.16
76345;DHT22;65160;50.504;3.666;2022-12-07T12:57:33;7.82;91.23
76345;DHT22;65160;50.504;3.666;2022-12-07T13:00:01;8.33;89.57
76345;DHT22;65160;50.504;3.666;2022-12-07T13:02:32;8.21;89.31
76345;DHT22;65160;50.504;3.666;2022-12-07T13:20:56;6.44;94.28
76345;DHT22;65160;50.504;3.666;2022-12-07T13:26:15;6.58;94.73
76345;DHT22;65160;50.504;3.666;2022-12-07T13:28:47;6.53;93.99
76345;DHT22;65160;50.504;3.666;2022-12-07T13:31:31;6.48;93.94
76345;DHT22;65160;50.504;3.666;2022-12-07T13:33:57;6.45;94.05
76345;DHT22;65160;50.504;3.666;2022-12-07T13:36:32;6.34;92.94
76345;DHT22;65160;50.504;3.666;2022-12-07T13:41:41;6.28;94.67
76345;DHT22;65160;50.504;3.666;2022-12-07T13:44:17;6.28;95.05
76345;DHT22;65160;50.504;3.666;2022-12-07T13:47:17;6.16;95.20
76345;DHT22;65160;50.504;3.666;2022-12-07T13:49:51;5.89;95.21
76345;DHT22;65160;50.504;3.666;2022-12-07T13:52:25;5.77;96.52
76345;DHT22;65160;50.504;3.666;2022-12-07T13:57:33;5.39;98.07
76345;DHT22;65160;50.504;3.666;2022-12-07T14:00:01;5.37;98.26
76345;DHT22;65160;50.504;3.666;2022-12-07T14:02:33;5.18;97.09
76345;DHT22;65160;50.504;3.666;2022-12-07T14:07:54;5.14;97.75
76345;DHT22;65160;50.504;3.666;2022-12-07T14:10:57;5.18;97.86
76345;DHT22;65160;50.504;3.666;2022-12-07T14:13:38;5.23;98.22
76345;DHT22;65160;50.504;3.666;2022-12-07T14:16:29;5.17;98.43
76345;DHT22;65160;50.504;3.666;2022-12-07T14:18:57;5.18;98.63
76345;DHT22;65160;50.504;3.666;2022-12-07T14:21:29;5.24;99.20
76345;DHT22;65160;50.504;3.666;2022-12-07T14:24:11;5.28;99.58
76345;DHT22;65160;50.504;3.666;2022-12-07T14:26:38;5.34;99.35
76345;DHT22;65160;50.504;3.666;2022-12-07T14:31:55;5.39;99.15
76345;DHT22;65160;50.504;3.666;2022-12-07T14:34:22;5.42;98.72
76345;DHT22;65160;50.504;3.666;2022-12-07T14:36:48;5.30;98.36
76345;DHT22;65160;50.504;3.666;2022-12-07T14:39:14;5.28;98.49
76345;DHT22;65160;50.504;3.666;2022-12-07T14:41:39;5.31;99.09
76345;DHT22;65160;50.504;3.666;2022-12-07T14:44:21;5.34;98.69
76345;DHT22;65160;50.504;3.666;2022-12-07T14:46:48;5.30;98.91
76345;DHT22;65160;50.504;3.666;2022-12-07T14:49:14;5.37;99.45
76345;DHT22;65160;50.504;3.666;2022-12-07T14:51:40;5.34;99.27
76345;DHT22;65160;50.504;3.666;2022-12-07T14:54:20;5.35;99.53
76345;DHT22;65160;50.504;3.666;2022-12-07T14:56:49;5.35;99.55
76345;DHT22;65160;50.504;3.666;2022-12-07T14:59:17;5.34;99.40
76345;DHT22;65160;50.504;3.666;2022-12-07T15:01:43;5.34;99.34
76345;DHT22;65160;50.504;3.666;2022-12-07T15:04:09;5.31;99.20
76345;DHT22;65160;50.504;3.666;2022-12-07T15:06:35;5.31;99.14
76345;DHT22;65160;50.504;3.666;2022-12-07T15:09:01;5.35;99.13
76345;DHT22;65160;50.504;3.666;2022-12-07T15:11:26;5.30;98.79
76345;DHT22;65160;50.504;3.666;2022-12-07T15:13:52;5.24;98.84
76345;DHT22;65160;50.504;3.666;2022-12-07T15:16:41;5.18;99.11
76345;DHT22;65160;50.504;3.666;2022-12-07T15:19:15;5.11;99.23
76345;DHT22;65160;50.504;3.666;2022-12-07T15:21:41;5.13;99.65
76345;DHT22;65160;50.504;3.666;2022-12-07T15:24:11;5.10;99.61
76345;DHT22;65160;50.504;3.666;2022-12-07T15:26:37;5.07;99.81
76345;DHT22;65160;50.504;3.666;2022-12-07T15:29:03;5.06;99.88
76345;DHT22;65160;50.504;3.666;2022-12-07T15:31:28;5.07;99.99
76345;DHT22;65160;50.504;3.666;2022-12-07T15:33:54;5.10;99.99
76345;DHT22;65160;50.504;3.666;2022-12-07T15:36:25;5.06;99.99
76345;DHT22;65160;50.504;3.666;2022-12-07T15:38:51;4.99;99.98
76345;DHT22;65160;50.504;3.666;2022-12-07T15:41:17;4.99;99.88
76345;DHT22;65160;50.504;3.666;2022-12-07T15:43:43;4.94;99.87
76345;DHT22;65160;50.504;3.666;2022-12-07T15:46:31;5.00;99.99
76345;DHT22;65160;50.504;3.666;2022-12-07T15:48:57;4.97;99.99
76345;DHT22;65160;50.504;3.666;2022-12-07T15:51:23;4.96;99.99
76345;DHT22;65160;50.504;3.666;2022-12-07T15:53:48;4.96;99.92
76345;DHT22;65160;50.504;3.666;2022-12-07T15:56:14;4.97;99.95
76345;DHT22;65160;50.504;3.666;2022-12-07T15:58:39;5.01;99.93
76345;DHT22;65160;50.504;3.666;2022-12-07T16:01:15;4.99;99.66
76345;DHT22;65160;50.504;3.666;2022-12-07T16:03:41;4.97;99.68
76345;DHT22;65160;50.504;3.666;2022-12-07T16:06:07;5.01;99.82
76345;DHT22;65160;50.504;3.666;2022-12-07T16:08:33;5.00;99.61
76345;DHT22;65160;50.504;3.666;2022-12-07T16:10:59;5.01;99.79
76345;DHT22;65160;50.504;3.666;2022-12-07T16:13:24;4.96;99.57
76345;DHT22;65160;50.504;3.666;2022-12-07T16:15:50;4.96;99.87
76345;DHT22;65160;50.504;3.666;2022-12-07T16:18:15;5.00;99.99
76345;DHT22;65160;50.504;3.666;2022-12-07T16:20:41;4.99;99.99
76345;DHT22;65160;50.504;3.666;2022-12-07T16:23:06;4.97;99.99
76345;DHT22;65160;50.504;3.666;2022-12-07T16:25:32;4.97;99.99
76345;DHT22;65160;50.504;3.666;2022-12-07T16:27:58;4.99;99.99
76345;DHT22;65160;50.504;3.666;2022-12-07T16:30:25;4.91;99.99
76345;DHT22;65160;50.504;3.666;2022-12-07T16:32:51;4.90;99.99
76345;DHT22;65160;50.504;3.666;2022-12-07T16:35:16;4.86;99.99
76345;DHT22;65160;50.504;3.666;2022-12-07T16:37:43;4.89;99.99
76345;DHT22;65160;50.504;3.666;2022-12-07T16:40:09;4.90;99.99
76345;DHT22;65160;50.504;3.666;2022-12-07T16:42:35;4.93;99.99
76345;DHT22;65160;50.504;3.666;2022-12-07T16:45:02;4.86;99.99
76345;DHT22;65160;50.504;3.666;2022-12-07T16:47:27;4.86;99.99
76345;DHT22;65160;50.504;3.666;2022-12-07T16:49:53;4.89;99.99
76345;DHT22;65160;50.504;3.666;2022-12-07T16:52:19;4.82;99.99
76345;DHT22;65160;50.504;3.666;2022-12-07T16:54:46;4.75;99.99
76345;DHT22;65160;50.504;3.666;2022-12-07T16:57:12;4.68;99.81
76345;DHT22;65160;50.504;3.666;2022-12-07T16:59:38;4.63;99.72
76345;DHT22;65160;50.504;3.666;2022-12-07T17:02:03;4.59;99.57
76345;DHT22;65160;50.504;3.666;2022-12-07T17:04:29;4.62;99.65
76345;DHT22;65160;50.504;3.666;2022-12-07T17:06:54;4.55;99.47
76345;DHT22;65160;50.504;3.666;2022-12-07T17:09:20;4.54;99.53
76345;DHT22;65160;50.504;3.666;2022-12-07T17:11:45;4.55;99.50
76345;DHT22;65160;50.504;3.666;2022-12-07T17:14:11;4.54;99.45
76345;DHT22;65160;50.504;3.666;2022-12-07T17:16:55;4.48;99.33
76345;DHT22;65160;50.504;3.666;2022-12-07T17:19:21;4.52;99.44
76345;DHT22;65160;50.504;3.666;2022-12-07T17:21:47;4.49;99.43
76345;DHT22;65160;50.504;3.666;2022-12-07T17:24:14;4.54;99.57
76345;DHT22;65160;50.504;3.666;2022-12-07T17:26:42;4.49;99.68
76345;DHT22;65160;50.504;3.666;2022-12-07T17:29:10;4.46;99.78
76345;DHT22;65160;50.504;3.666;2022-12-07T17:31:36;4.41;99.46
76345;DHT22;65160;50.504;3.666;2022-12-07T17:34:02;4.38;99.35
76345;DHT22;65160;50.504;3.666;2022-12-07T17:36:30;4.35;99.68
76345;DHT22;65160;50.504;3.666;2022-12-07T17:38:56;4.33;99.92
76345;DHT22;65160;50.504;3.666;2022-12-07T17:41:26;4.28;99.90
76345;DHT22;65160;50.504;3.666;2022-12-07T17:44:14;4.24;99.62
76345;DHT22;65160;50.504;3.666;2022-12-07T17:46:40;4.18;99.76
76345;DHT22;65160;50.504;3.666;2022-12-07T17:49:06;4.18;99.87
76345;DHT22;65160;50.504;3.666;2022-12-07T17:51:32;4.17;99.99
76345;DHT22;65160;50.504;3.666;2022-12-07T17:54:16;4.17;99.99
76345;DHT22;65160;50.504;3.666;2022-12-07T17:56:45;4.18;99.95
76345;DHT22;65160;50.504;3.666;2022-12-07T17:59:11;4.16;99.99
76345;DHT22;65160;50.504;3.666;2022-12-07T18:01:37;4.18;99.99
76345;DHT22;65160;50.504;3.666;2022-12-07T18:04:04;4.14;99.99
76345;DHT22;65160;50.504;3.666;2022-12-07T18:06:29;4.17;99.99
76345;DHT22;65160;50.504;3.666;2022-12-07T18:08:55;4.14;99.99